createdAt,value
2022-09-03T00:04:28.751Z,18.06
2022-09-03T00:24:28.737Z,18.05
2022-09-03T00:44:28.440Z,18.03
2022-09-03T01:24:28.653Z,17.96
2022-09-03T01:44:28.636Z,17.96
2022-09-03T02:04:28.587Z,17.95
2022-09-03T03:04:28.571Z,17.86
2022-09-03T03:24:28.524Z,17.85
2022-09-03T03:44:28.509Z,17.83
2022-09-03T04:04:28.480Z,17.79
2022-09-03T04:24:28.234Z,17.76
2022-09-03T04:44:28.458Z,17.75
2022-09-03T05:04:28.436Z,17.72
2022-09-03T05:24:28.386Z,17.67
2022-09-03T05:44:28.387Z,17.65
2022-09-03T06:04:28.410Z,17.64
2022-09-03T06:24:28.614Z,17.6
2022-09-03T06:44:28.302Z,17.56
2022-09-03T07:04:28.296Z,17.55
2022-09-03T07:24:28.281Z,17.53
2022-09-03T07:44:28.223Z,17.48
2022-09-03T08:04:28.246Z,17.45
2022-09-03T08:24:28.179Z,17.44
2022-09-03T08:44:27.874Z,17.43
2022-09-03T09:04:28.132Z,17.39
2022-09-03T09:24:28.081Z,17.36
2022-09-03T09:44:28.043Z,17.35
2022-09-03T10:04:32.454Z,17.34
2022-09-03T10:24:27.971Z,17.33
2022-09-03T10:44:27.956Z,17.3
2022-09-03T11:24:27.893Z,17.27
2022-09-03T11:44:27.878Z,17.26
2022-09-03T12:04:27.886Z,17.26
2022-09-03T12:24:27.797Z,17.26
2022-09-03T12:44:27.771Z,17.27
2022-09-03T13:04:27.730Z,17.3
2022-09-03T13:24:27.730Z,17.32
2022-09-03T13:44:27.684Z,17.34
2022-09-03T14:04:27.377Z,17.35
2022-09-03T14:24:27.625Z,17.37
2022-09-03T14:44:27.591Z,17.42
2022-09-03T15:04:27.552Z,17.45
2022-09-03T15:24:27.515Z,17.46
2022-09-03T15:44:27.493Z,17.52
2022-09-03T16:24:27.435Z,17.58
2022-09-03T16:44:27.386Z,17.64
2022-09-03T17:04:27.354Z,17.66
2022-09-03T17:24:27.309Z,17.71
2022-09-03T18:04:27.293Z,17.77
2022-09-03T18:24:27.220Z,17.83
2022-09-03T18:44:27.193Z,17.85
2022-09-03T19:04:26.884Z,17.86
2022-09-03T19:24:27.081Z,17.89
2022-09-03T19:44:27.078Z,17.93
2022-09-03T20:04:27.049Z,17.95
2022-09-03T20:24:27.023Z,17.96
2022-09-03T20:44:26.977Z,17.96
2022-09-03T21:04:26.960Z,17.97
2022-09-03T21:24:29.763Z,17.98
2022-09-03T21:44:26.890Z,18
2022-09-03T22:04:26.874Z,18
2022-09-03T22:24:26.838Z,18.01
2022-09-03T23:04:26.788Z,18
2022-09-03T23:44:26.732Z,17.98
